Time;durP1;ratioP1;P1;durP2;ratioP2;P2;SDS_P1;SDS_P2;PMS_P1;PMS_P2;Temp;Humidity;BMP_temperature;BMP_pressure;BME280_temperature;BME280_humidity;BME280_pressure;Samples;Min_cycle;Max_cycle;Signal;HPM_P1;HPM_P2
2023/05/02 00:00:32;;;;;;;7.27;5.70;;;17.30;92.10;;;;;;5093454;28;20415;-75
2023/05/02 00:03:00;;;;;;;7.70;5.60;;;17.30;92.10;;;;;;5057820;28;20435;-74
2023/05/02 00:05:26;;;;;;;7.27;6.57;;;17.30;92.10;;;;;;5041314;28;20435;-74
2023/05/02 00:07:52;;;;;;;7.60;6.80;;;17.20;92.00;;;;;;5075576;28;20408;-74
2023/05/02 00:10:20;;;;;;;7.70;7.00;;;17.30;92.10;;;;;;5021388;28;20456;-74
2023/05/02 00:12:47;;;;;;;8.57;7.47;;;17.20;92.00;;;;;;5072634;28;20468;-74
2023/05/02 00:15:13;;;;;;;9.10;8.20;;;17.20;92.00;;;;;;5024299;28;20509;-74
2023/05/02 00:17:40;;;;;;;8.47;7.30;;;17.20;92.00;;;;;;5057745;28;20952;-74
2023/05/02 00:20:08;;;;;;;11.13;8.27;;;17.20;92.10;;;;;;5040714;28;20473;-75
2023/05/02 00:22:35;;;;;;;10.40;9.43;;;17.20;92.10;;;;;;5057129;28;20435;-75
2023/05/02 00:25:03;;;;;;;10.83;9.73;;;17.20;92.10;;;;;;5041341;28;20527;-75
2023/05/02 00:27:33;;;;;;;11.70;10.03;;;17.10;92.10;;;;;;5057590;28;20428;-75
2023/05/02 00:29:59;;;;;;;11.50;10.07;;;17.10;92.10;;;;;;5057331;28;20968;-74
2023/05/02 00:32:28;;;;;;;12.10;10.80;;;17.10;92.20;;;;;;5040625;28;20484;-74
2023/05/02 00:34:57;;;;;;;13.90;11.63;;;17.10;92.20;;;;;;5040706;28;20852;-75
2023/05/02 00:37:26;;;;;;;13.40;12.10;;;17.10;92.30;;;;;;5057352;28;20750;-75
2023/05/02 00:39:55;;;;;;;13.27;11.30;;;17.10;92.30;;;;;;5057818;28;20404;-75
2023/05/02 00:42:21;;;;;;;13.43;12.03;;;17.10;92.40;;;;;;5040660;28;20489;-74
2023/05/02 00:44:47;;;;;;;15.60;13.03;;;17.10;92.40;;;;;;5057399;28;20429;-74
2023/05/02 00:47:14;;;;;;;15.00;12.60;;;17.10;92.50;;;;;;5074933;28;20925;-74
2023/05/02 00:49:41;;;;;;;19.23;14.23;;;17.00;92.40;;;;;;5057221;28;20405;-74
2023/05/02 00:52:07;;;;;;;16.73;14.67;;;17.00;92.50;;;;;;5040513;28;20447;-74
2023/05/02 00:54:38;;;;;;;17.60;15.20;;;17.00;92.50;;;;;;5056396;28;20492;-74
2023/05/02 00:57:04;;;;;;;19.20;16.10;;;17.00;92.50;;;;;;5022285;28;20506;-74
2023/05/02 00:59:34;;;;;;;20.00;15.90;;;16.90;92.50;;;;;;5056415;28;20411;-74
2023/05/02 01:02:35;;;;;;;20.90;16.60;;;17.00;92.60;;;;;;5056666;28;20459;-74
2023/05/02 01:05:42;;;;;;;19.83;16.00;;;16.90;92.60;;;;;;5023928;28;20446;-75
2023/05/02 01:08:30;;;;;;;23.27;16.87;;;17.00;92.60;;;;;;5023609;28;20427;-74
2023/05/02 01:11:07;;;;;;;18.00;16.10;;;16.90;92.60;;;;;;5023906;28;20419;-74
2023/05/02 01:13:37;;;;;;;22.10;17.87;;;16.90;92.70;;;;;;5056241;28;20506;-74
2023/05/02 01:16:05;;;;;;;22.40;18.00;;;16.80;92.60;;;;;;5056219;28;20802;-74
2023/05/02 01:18:37;;;;;;;21.73;17.47;;;16.80;92.70;;;;;;5039056;28;20444;-74
2023/05/02 01:21:08;;;;;;;24.00;17.40;;;16.90;92.70;;;;;;5039471;28;20428;-74
2023/05/02 01:23:58;;;;;;;23.27;18.30;;;16.90;92.70;;;;;;5056755;28;20442;-75
2023/05/02 01:26:52;;;;;;;23.47;19.10;;;16.80;92.70;;;;;;5055615;28;20547;-74
2023/05/02 01:29:22;;;;;;;23.63;18.60;;;16.80;92.70;;;;;;5074211;28;20412;-74
2023/05/02 01:31:52;;;;;;;21.93;16.03;;;16.80;93.10;;;;;;5056585;28;20514;-75
2023/05/02 01:34:20;;;;;;;24.10;19.07;;;16.80;92.80;;;;;;5055732;28;20471;-75
2023/05/02 01:36:49;;;;;;;24.13;18.67;;;16.80;92.80;;;;;;5055964;28;20444;-74
2023/05/02 01:39:22;;;;;;;21.97;19.37;;;16.70;92.80;;;;;;5073900;28;20412;-75
2023/05/02 01:41:50;;;;;;;24.73;19.90;;;16.70;92.80;;;;;;5039392;28;20464;-74
2023/05/02 01:44:21;;;;;;;28.20;20.40;;;16.70;92.80;;;;;;5056560;28;20826;-74
2023/05/02 01:46:55;;;;;;;25.37;20.13;;;16.70;92.80;;;;;;5055831;28;20420;-74
2023/05/02 01:49:23;;;;;;;30.67;21.00;;;16.70;92.90;;;;;;5056242;28;20862;-74
2023/05/02 01:51:50;;;;;;;24.67;19.60;;;16.70;92.90;;;;;;5055793;28;20432;-74
2023/05/02 01:54:20;;;;;;;23.53;18.40;;;16.70;93.00;;;;;;5039198;28;20556;-74
2023/05/02 01:56:48;;;;;;;23.90;20.33;;;16.70;93.00;;;;;;5055947;28;20401;-74
2023/05/02 01:59:19;;;;;;;25.37;19.97;;;16.70;93.10;;;;;;5055832;28;20850;-75
2023/05/02 02:01:47;;;;;;;26.97;19.73;;;16.70;93.10;;;;;;5073369;28;20795;-74
2023/05/02 02:04:18;;;;;;;26.67;19.67;;;16.70;93.20;;;;;;5055359;28;20411;-74
2023/05/02 02:06:48;;;;;;;28.97;21.20;;;16.60;93.20;;;;;;5073446;28;20419;-74
2023/05/02 02:09:16;;;;;;;24.23;18.53;;;16.60;93.20;;;;;;5040657;28;20414;-74
2023/05/02 02:11:48;;;;;;;26.70;19.30;;;16.60;93.20;;;;;;5002894;28;20462;-74
2023/05/02 02:14:31;;;;;;;26.70;19.30;;;16.60;93.30;;;;;;5019915;28;20864;-74
2023/05/02 02:17:04;;;;;;;26.17;18.90;;;16.60;93.30;;;;;;5019407;28;20483;-74
2023/05/02 02:19:33;;;;;;;27.20;19.80;;;16.60;93.40;;;;;;5019903;28;20406;-74
2023/05/02 02:22:01;;;;;;;26.17;18.33;;;16.60;93.40;;;;;;5018976;28;20525;-74
2023/05/02 02:24:29;;;;;;;22.83;17.20;;;16.60;93.40;;;;;;5019135;28;20499;-74
2023/05/02 02:26:58;;;;;;;23.33;18.83;;;16.60;93.50;;;;;;5035363;28;20424;-74
2023/05/02 02:29:24;;;;;;;22.83;17.50;;;16.50;93.50;;;;;;5053306;28;20402;-74
2023/05/02 02:31:52;;;;;;;23.93;18.37;;;16.50;93.50;;;;;;5019223;28;20471;-74
2023/05/02 02:34:23;;;;;;;24.37;18.00;;;16.50;93.50;;;;;;5018798;28;20482;-75
2023/05/02 02:37:17;;;;;;;24.73;18.20;;;16.50;93.50;;;;;;5019414;28;20481;-74
2023/05/02 02:40:08;;;;;;;21.57;17.43;;;16.50;93.60;;;;;;5018878;28;20499;-74
2023/05/02 02:42:39;;;;;;;21.50;16.30;;;16.50;93.60;;;;;;5002587;28;20463;-74
2023/05/02 02:45:28;;;;;;;24.37;17.10;;;16.50;93.70;;;;;;5019220;28;20478;-75
2023/05/02 02:48:48;;;;;;;22.60;16.47;;;16.50;93.70;;;;;;5023346;28;20491;-74
2023/05/02 02:51:30;;;;;;;21.80;16.23;;;16.50;93.70;;;;;;5039143;28;20400;-74
2023/05/02 02:54:12;;;;;;;23.77;18.07;;;16.50;93.80;;;;;;5039190;28;20529;-74
2023/05/02 02:56:46;;;;;;;24.33;17.03;;;16.40;93.80;;;;;;5022784;28;20912;-74
2023/05/02 02:59:25;;;;;;;20.47;15.30;;;16.40;93.80;;;;;;5023361;28;20902;-74
2023/05/02 03:02:17;;;;;;;21.60;16.57;;;16.40;93.80;;;;;;5023293;28;20502;-74
2023/05/02 03:04:45;;;;;;;19.80;15.53;;;16.40;93.90;;;;;;5058808;23;20494;-72
2023/05/02 03:07:12;;;;;;;23.50;15.23;;;16.40;93.90;;;;;;5048720;28;20581;-73
2023/05/02 03:09:48;;;;;;;20.00;14.77;;;16.40;94.00;;;;;;5024634;28;20431;-73
2023/05/02 03:12:21;;;;;;;19.93;15.53;;;16.40;94.00;;;;;;5048582;28;20923;-73
2023/05/02 03:14:49;;;;;;;20.43;13.93;;;16.40;94.00;;;;;;5020709;28;20568;-73
2023/05/02 03:17:16;;;;;;;19.37;14.57;;;16.40;94.00;;;;;;5020949;28;20452;-73
2023/05/02 03:19:44;;;;;;;18.43;13.30;;;16.40;94.00;;;;;;5004463;28;20845;-73
2023/05/02 03:22:13;;;;;;;18.00;13.60;;;16.40;94.00;;;;;;5020814;28;20448;-73
2023/05/02 03:24:42;;;;;;;17.57;12.17;;;16.40;94.10;;;;;;5037682;28;20760;-73
2023/05/02 03:27:11;;;;;;;14.80;11.67;;;16.40;94.10;;;;;;5020629;28;20429;-73
2023/05/02 03:29:40;;;;;;;15.67;12.33;;;16.30;94.00;;;;;;5021108;28;20778;-73
2023/05/02 03:32:08;;;;;;;14.63;11.30;;;16.30;94.00;;;;;;5035950;28;20502;-73
2023/05/02 03:34:40;;;;;;;15.90;11.00;;;16.30;94.00;;;;;;5037199;28;20471;-73
2023/05/02 03:37:08;;;;;;;15.53;10.93;;;16.30;94.00;;;;;;5036206;28;20916;-73
2023/05/02 03:39:34;;;;;;;13.00;10.03;;;16.30;94.00;;;;;;5037236;28;20557;-73
2023/05/02 03:42:01;;;;;;;14.90;10.83;;;16.30;94.00;;;;;;5036616;28;20975;-73
2023/05/02 03:44:32;;;;;;;15.67;11.37;;;16.30;94.00;;;;;;5036187;28;20419;-73
2023/05/02 03:47:01;;;;;;;12.73;10.30;;;16.30;94.00;;;;;;5019805;28;20431;-73
2023/05/02 03:49:29;;;;;;;12.47;9.97;;;16.30;94.00;;;;;;5036877;28;20760;-74
2023/05/02 03:51:55;;;;;;;15.10;10.60;;;16.30;94.00;;;;;;5034958;28;20783;-73
2023/05/02 03:54:26;;;;;;;13.77;10.10;;;16.20;94.00;;;;;;5004176;28;20455;-73
2023/05/02 03:56:55;;;;;;;11.33;9.30;;;16.20;94.00;;;;;;5036157;28;20420;-73
2023/05/02 03:59:32;;;;;;;10.60;8.80;;;16.20;94.00;;;;;;5020034;28;20435;-72
2023/05/02 04:02:00;;;;;;;10.60;9.10;;;16.20;94.00;;;;;;5035443;28;20518;-73
2023/05/02 04:04:39;;;;;;;9.90;8.17;;;16.20;94.00;;;;;;5025274;28;20455;-73
2023/05/02 04:07:14;;;;;;;9.70;8.70;;;16.20;94.00;;;;;;5019989;28;20429;-74
2023/05/02 04:09:41;;;;;;;14.03;8.87;;;16.20;94.00;;;;;;5036273;28;20921;-72
2023/05/02 04:12:13;;;;;;;9.10;7.33;;;16.20;94.00;;;;;;5019919;28;20529;-73
2023/05/02 04:14:42;;;;;;;12.40;8.63;;;16.20;94.00;;;;;;5020280;28;20450;-70
2023/05/02 04:17:09;;;;;;;11.37;7.83;;;16.20;94.10;;;;;;5036225;28;20503;-71
2023/05/02 04:19:44;;;;;;;10.63;7.90;;;16.20;94.10;;;;;;5036373;28;20400;-74
2023/05/02 04:22:11;;;;;;;8.80;7.30;;;16.20;94.10;;;;;;5036064;28;20848;-72
2023/05/02 04:24:42;;;;;;;9.77;8.03;;;16.20;94.10;;;;;;5036222;28;20435;-72
2023/05/02 04:27:11;;;;;;;10.30;7.80;;;16.20;94.10;;;;;;5035628;28;20848;-73
2023/05/02 04:29:37;;;;;;;11.33;8.13;;;16.20;94.10;;;;;;5019825;28;20406;-73
2023/05/02 04:32:06;;;;;;;13.63;7.80;;;16.20;94.10;;;;;;5035356;28;20459;-73
2023/05/02 04:34:32;;;;;;;9.80;7.83;;;16.20;94.20;;;;;;5019718;28;20544;-73
2023/05/02 04:37:02;;;;;;;11.73;8.47;;;16.10;94.10;;;;;;5019175;28;20544;-72
2023/05/02 04:39:31;;;;;;;11.40;7.87;;;16.10;94.10;;;;;;5019808;28;20491;-72
2023/05/02 04:42:11;;;;;;;11.73;7.17;;;16.10;94.20;;;;;;5004120;28;20983;-74
2023/05/02 04:44:45;;;;;;;10.53;7.60;;;16.10;94.20;;;;;;5035598;28;20432;-73
2023/05/02 04:47:15;;;;;;;10.47;8.30;;;16.10;94.20;;;;;;5003805;28;20453;-74
2023/05/02 04:49:44;;;;;;;10.70;8.23;;;16.10;94.20;;;;;;5035846;28;20463;-73
2023/05/02 04:52:10;;;;;;;12.20;7.40;;;16.10;94.20;;;;;;5035415;28;20856;-72
2023/05/02 04:54:36;;;;;;;8.17;7.20;;;16.10;94.30;;;;;;5035026;28;20459;-74
2023/05/02 04:57:06;;;;;;;10.20;6.90;;;16.10;94.30;;;;;;5035428;28;20444;-73
2023/05/02 04:59:38;;;;;;;9.43;6.97;;;16.10;94.40;;;;;;5035774;28;20397;-72
2023/05/02 05:02:06;;;;;;;10.57;9.17;;;16.10;94.40;;;;;;5018666;28;20461;-73
2023/05/02 05:04:33;;;;;;;11.17;8.70;;;16.00;94.40;;;;;;5019226;28;20489;-73
2023/05/02 05:07:00;;;;;;;11.53;8.00;;;16.00;94.40;;;;;;5018630;28;20468;-73
2023/05/02 05:09:28;;;;;;;12.67;9.00;;;16.00;94.50;;;;;;5034076;28;20424;-74
2023/05/02 05:11:56;;;;;;;11.77;8.80;;;16.00;94.50;;;;;;5018123;28;20974;-73
2023/05/02 05:14:23;;;;;;;14.47;9.47;;;16.00;94.60;;;;;;5035457;28;20477;-73
2023/05/02 05:16:54;;;;;;;13.70;9.97;;;16.00;94.70;;;;;;5034943;28;20445;-73
2023/05/02 05:19:25;;;;;;;12.60;9.90;;;16.00;94.70;;;;;;5035159;28;20445;-73
2023/05/02 05:21:51;;;;;;;11.90;9.50;;;16.00;94.90;;;;;;5034461;28;20441;-73
2023/05/02 05:24:21;;;;;;;15.70;10.20;;;16.00;94.90;;;;;;5018554;28;20440;-74
2023/05/02 05:26:54;;;;;;;13.30;10.07;;;16.00;95.00;;;;;;5035155;28;20399;-73
2023/05/02 05:29:23;;;;;;;15.27;11.50;;;16.00;95.00;;;;;;5018419;28;20439;-73
2023/05/02 05:31:48;;;;;;;15.50;10.93;;;16.00;95.10;;;;;;5052309;28;20437;-73
2023/05/02 05:34:17;;;;;;;15.27;11.40;;;15.90;95.10;;;;;;5017889;28;20547;-74
2023/05/02 05:36:47;;;;;;;13.57;9.57;;;15.90;95.10;;;;;;5034431;28;20408;-73
2023/05/02 05:39:14;;;;;;;14.13;9.07;;;16.00;95.30;;;;;;5018090;28;20482;-74
2023/05/02 05:41:42;;;;;;;13.73;9.33;;;15.90;95.30;;;;;;5051641;28;20455;-73
2023/05/02 05:44:15;;;;;;;13.53;9.30;;;15.90;95.40;;;;;;5018345;28;20428;-73
2023/05/02 05:46:43;;;;;;;9.87;8.60;;;15.90;95.40;;;;;;5034473;28;20427;-73
2023/05/02 05:49:11;;;;;;;12.00;8.50;;;15.90;95.50;;;;;;5034533;28;20427;-73
2023/05/02 05:51:38;;;;;;;12.53;8.13;;;15.90;95.50;;;;;;5033958;28;20436;-73
2023/05/02 05:54:06;;;;;;;10.73;7.90;;;15.90;95.60;;;;;;5017936;28;20448;-73
2023/05/02 05:56:34;;;;;;;10.63;7.40;;;15.90;95.60;;;;;;5034162;28;20203;-73
2023/05/02 05:59:09;;;;;;;10.17;7.40;;;15.90;95.70;;;;;;5017957;28;20422;-73
2023/05/02 06:01:41;;;;;;;7.90;7.10;;;15.90;95.70;;;;;;5034210;28;20443;-73
2023/05/02 06:04:08;;;;;;;9.10;6.90;;;15.90;95.70;;;;;;5017670;28;21005;-73
2023/05/02 06:06:39;;;;;;;7.60;6.43;;;15.80;95.70;;;;;;5018108;28;20944;-73
2023/05/02 06:09:05;;;;;;;8.03;7.00;;;15.80;95.70;;;;;;5051547;28;20407;-73
2023/05/02 06:11:36;;;;;;;7.37;6.00;;;15.80;95.80;;;;;;5033770;28;20447;-74
2023/05/02 06:14:04;;;;;;;9.17;5.93;;;15.80;95.80;;;;;;5033798;28;20464;-74
2023/05/02 06:16:30;;;;;;;9.73;6.60;;;15.80;95.80;;;;;;5017558;28;20435;-74
2023/05/02 06:18:56;;;;;;;8.10;5.90;;;15.80;95.80;;;;;;5017630;28;20410;-73
2023/05/02 06:21:30;;;;;;;6.40;5.00;;;15.80;95.90;;;;;;5033500;28;20474;-73
2023/05/02 06:23:58;;;;;;;8.60;6.10;;;15.80;95.80;;;;;;5017491;28;20450;-73
2023/05/02 06:26:24;;;;;;;7.70;5.80;;;15.80;95.80;;;;;;5033591;28;20917;-73
2023/05/02 06:28:54;;;;;;;5.23;4.73;;;15.80;95.80;;;;;;5033693;28;20444;-73
2023/05/02 06:31:20;;;;;;;6.50;4.83;;;15.80;95.80;;;;;;5033637;28;20535;-73
2023/05/02 06:33:46;;;;;;;6.40;4.90;;;15.80;95.80;;;;;;4997100;28;20547;-74
2023/05/02 06:36:15;;;;;;;7.03;5.10;;;15.80;95.80;;;;;;5013587;28;20457;-73
2023/05/02 06:38:41;;;;;;;7.80;4.80;;;15.80;95.80;;;;;;4997741;28;20427;-73
2023/05/02 06:41:14;;;;;;;6.40;4.83;;;15.80;95.80;;;;;;5013784;28;20784;-73
2023/05/02 06:43:40;;;;;;;7.07;4.60;;;15.80;95.80;;;;;;4997223;28;20613;-73
2023/05/02 06:46:12;;;;;;;5.40;4.20;;;15.70;95.70;;;;;;5031105;28;20399;-73
2023/05/02 06:48:42;;;;;;;7.37;4.37;;;15.70;95.70;;;;;;5013876;28;20422;-73
2023/05/02 06:51:13;;;;;;;6.43;4.43;;;15.70;95.70;;;;;;5013811;28;20604;-73
2023/05/02 06:53:41;;;;;;;6.50;4.17;;;15.70;95.70;;;;;;5013637;28;20473;-74
2023/05/02 06:56:07;;;;;;;8.50;3.70;;;15.70;95.70;;;;;;4997451;28;20420;-73
2023/05/02 06:58:33;;;;;;;5.27;3.90;;;15.70;95.60;;;;;;5013327;28;20608;-74
2023/05/02 07:01:02;;;;;;;5.90;4.30;;;15.70;95.60;;;;;;5013911;28;20961;-73
2023/05/02 07:03:31;;;;;;;6.30;4.00;;;15.70;95.70;;;;;;5024060;28;20538;-73
2023/05/02 07:06:00;;;;;;;4.67;3.80;;;15.70;95.60;;;;;;5001062;28;20797;-73
2023/05/02 07:08:31;;;;;;;6.87;5.47;;;15.70;95.60;;;;;;5050716;28;20505;-73
2023/05/02 07:10:57;;;;;;;6.43;4.17;;;15.70;95.60;;;;;;5051115;28;20467;-74
2023/05/02 07:13:25;;;;;;;4.63;3.70;;;15.70;95.60;;;;;;5000465;28;20535;-73
2023/05/02 07:15:52;;;;;;;4.13;3.73;;;15.70;95.60;;;;;;5051123;28;20485;-74
2023/05/02 07:18:21;;;;;;;4.20;3.60;;;15.70;95.50;;;;;;5033138;28;20439;-73
2023/05/02 07:20:47;;;;;;;6.50;3.90;;;15.70;95.50;;;;;;5016639;28;20832;-73
2023/05/02 07:23:15;;;;;;;8.73;3.60;;;15.70;95.50;;;;;;5033061;28;20465;-74
2023/05/02 07:25:44;;;;;;;5.40;3.93;;;15.70;95.50;;;;;;5033212;28;20420;-73
2023/05/02 07:28:10;;;;;;;5.87;4.33;;;15.70;95.40;;;;;;5032851;28;20420;-73
2023/05/02 07:30:36;;;;;;;6.60;3.57;;;15.60;95.30;;;;;;5000523;28;20947;-73
2023/05/02 07:33:01;;;;;;;4.20;3.70;;;15.60;95.30;;;;;;5017124;28;20466;-74
2023/05/02 07:35:28;;;;;;;3.93;3.50;;;15.60;95.30;;;;;;5036622;28;20442;-74
2023/05/02 07:37:54;;;;;;;5.20;3.40;;;15.60;95.20;;;;;;5036573;28;20445;-74
2023/05/02 07:40:22;;;;;;;4.13;3.00;;;15.60;95.20;;;;;;5036834;28;20407;-73
2023/05/02 07:42:49;;;;;;;5.00;3.60;;;15.60;95.10;;;;;;5036750;28;20485;-73
2023/05/02 07:45:16;;;;;;;6.60;3.53;;;15.60;95.10;;;;;;5036772;28;20877;-73
2023/05/02 07:47:42;;;;;;;5.07;2.77;;;15.60;95.00;;;;;;5054005;28;20456;-74
2023/05/02 07:50:08;;;;;;;5.17;3.60;;;15.60;95.00;;;;;;5054202;28;20775;-74
2023/05/02 07:52:34;;;;;;;5.40;3.20;;;15.60;94.90;;;;;;5036385;28;20448;-73
2023/05/02 07:55:03;;;;;;;5.70;3.13;;;15.60;94.90;;;;;;5036311;28;20526;-73
2023/05/02 07:57:32;;;;;;;4.00;3.17;;;15.50;94.80;;;;;;5036212;28;20416;-74
2023/05/02 08:00:06;;;;;;;4.37;3.17;;;15.50;94.70;;;;;;5045903;28;20890;-74
2023/05/02 08:02:44;;;;;;;7.37;3.20;;;15.50;94.70;;;;;;5047725;28;20808;-74
2023/05/02 08:05:12;;;;;;;5.33;3.33;;;15.50;94.60;;;;;;5015726;28;20853;-74
2023/05/02 08:07:41;;;;;;;4.57;3.10;;;15.50;94.50;;;;;;5017594;28;20480;-73
2023/05/02 08:10:07;;;;;;;8.00;2.83;;;15.50;94.40;;;;;;5030659;28;20430;-73
2023/05/02 08:12:42;;;;;;;5.97;3.40;;;15.50;94.40;;;;;;5034311;28;20552;-73
2023/05/02 08:15:11;;;;;;;3.90;3.10;;;15.50;94.40;;;;;;5035888;28;20538;-73
2023/05/02 08:17:39;;;;;;;6.60;3.00;;;15.40;94.30;;;;;;5034807;28;20444;-74
2023/05/02 08:20:05;;;;;;;4.43;2.77;;;15.40;94.20;;;;;;5048742;28;20460;-73
2023/05/02 08:22:34;;;;;;;3.63;3.23;;;15.40;94.20;;;;;;5016321;28;20432;-73
2023/05/02 08:25:02;;;;;;;5.00;3.00;;;15.40;94.10;;;;;;5011553;28;20477;-73
2023/05/02 08:27:28;;;;;;;7.53;3.40;;;15.40;94.10;;;;;;5053653;28;20409;-74
2023/05/02 08:29:54;;;;;;;4.73;2.70;;;15.40;94.00;;;;;;5019830;28;20501;-73
2023/05/02 08:32:22;;;;;;;5.80;3.17;;;15.40;94.00;;;;;;5035598;28;20433;-73
2023/05/02 08:34:55;;;;;;;4.67;2.70;;;15.40;94.00;;;;;;5053412;28;20507;-74
2023/05/02 08:37:23;;;;;;;4.20;3.80;;;15.40;93.90;;;;;;5019593;28;20546;-73
2023/05/02 08:39:51;;;;;;;8.93;3.10;;;15.40;93.90;;;;;;5036210;28;20431;-74
2023/05/02 08:42:19;;;;;;;5.50;2.70;;;15.40;93.90;;;;;;5035606;28;20876;-73
2023/05/02 08:44:47;;;;;;;4.97;3.40;;;15.40;93.90;;;;;;5035802;28;20230;-74
2023/05/02 08:47:17;;;;;;;5.97;3.40;;;15.40;93.80;;;;;;5035673;28;20444;-73
2023/05/02 08:49:48;;;;;;;3.83;2.70;;;15.40;93.80;;;;;;5018542;28;20434;-73
2023/05/02 08:52:16;;;;;;;6.60;3.50;;;15.40;93.70;;;;;;5053434;28;20439;-73
2023/05/02 08:54:43;;;;;;;6.33;3.13;;;15.40;93.70;;;;;;5018697;28;20470;-73
2023/05/02 08:57:11;;;;;;;5.93;3.20;;;15.40;93.70;;;;;;5053392;28;20933;-73
2023/05/02 08:59:37;;;;;;;4.80;2.70;;;15.40;93.60;;;;;;5034860;28;20449;-73
2023/05/02 09:02:22;;;;;;;4.13;2.80;;;15.30;93.50;;;;;;5035446;28;20455;-73
2023/05/02 09:04:55;;;;;;;3.30;2.30;;;15.30;93.50;;;;;;5032941;28;20476;-73
2023/05/02 09:07:26;;;;;;;3.80;2.60;;;15.30;93.50;;;;;;5035075;28;20438;-74
2023/05/02 09:09:52;;;;;;;4.20;2.40;;;15.30;93.40;;;;;;5018796;28;20448;-73
2023/05/02 09:12:25;;;;;;;3.40;2.50;;;15.30;93.40;;;;;;5035222;28;20444;-73
2023/05/02 09:15:11;;;;;;;4.70;2.53;;;15.30;93.40;;;;;;5033897;28;20462;-73
2023/05/02 09:17:45;;;;;;;8.70;2.73;;;15.30;93.30;;;;;;5018064;28;20438;-74
2023/05/02 09:20:13;;;;;;;4.67;2.80;;;15.30;93.30;;;;;;5017743;28;20537;-73
2023/05/02 09:22:50;;;;;;;3.90;2.80;;;15.30;93.30;;;;;;5017836;28;21018;-73
2023/05/02 09:25:19;;;;;;;8.43;2.80;;;15.30;93.20;;;;;;5052106;28;20450;-71
2023/05/02 09:27:53;;;;;;;6.33;3.60;;;15.30;93.20;;;;;;5032098;28;20438;-75
2023/05/02 09:30:24;;;;;;;3.60;2.50;;;15.30;93.10;;;;;;5034588;28;20780;-74
2023/05/02 09:32:53;;;;;;;3.93;3.13;;;15.30;93.00;;;;;;5051124;28;20460;-74
2023/05/02 09:35:23;;;;;;;5.10;3.20;;;15.30;93.00;;;;;;5017566;28;20870;-74
2023/05/02 09:37:51;;;;;;;8.60;3.10;;;15.30;92.90;;;;;;5034371;28;20393;-74
2023/05/02 09:40:18;;;;;;;6.77;2.97;;;15.30;92.90;;;;;;5034303;28;20408;-74
2023/05/02 09:42:44;;;;;;;4.97;2.70;;;15.30;92.80;;;;;;5033812;28;20463;-74
2023/05/02 09:45:25;;;;;;;6.57;3.50;;;15.40;92.90;;;;;;5034553;28;20438;-74
2023/05/02 09:48:02;;;;;;;4.90;3.43;;;15.40;92.80;;;;;;5034220;28;20439;-74
2023/05/02 09:50:36;;;;;;;4.53;3.10;;;15.40;92.70;;;;;;5001444;28;20449;-74
2023/05/02 09:53:06;;;;;;;7.33;3.40;;;15.40;92.60;;;;;;5001366;28;20454;-74
2023/05/02 09:55:32;;;;;;;5.57;4.00;;;15.40;92.40;;;;;;5033708;28;20464;-74
2023/05/02 09:57:59;;;;;;;4.60;2.97;;;15.40;92.30;;;;;;5051559;28;20408;-74
2023/05/02 10:00:49;;;;;;;6.97;3.60;;;15.40;92.40;;;;;;5017904;28;20479;-74
2023/05/02 10:03:18;;;;;;;5.20;3.70;;;15.40;92.30;;;;;;5051584;28;20459;-75
2023/05/02 10:05:45;;;;;;;7.37;3.67;;;15.50;92.20;;;;;;5017345;28;20473;-74
2023/05/02 10:08:18;;;;;;;4.93;4.10;;;15.50;91.90;;;;;;5017698;28;20435;-74
2023/05/02 10:10:53;;;;;;;6.50;4.63;;;15.50;91.80;;;;;;5034469;28;20409;-74
2023/05/02 10:13:25;;;;;;;9.33;3.80;;;15.50;91.60;;;;;;4997724;28;20497;-74
2023/05/02 10:16:13;;;;;;;4.63;3.40;;;15.50;91.60;;;;;;5030527;28;20452;-75
2023/05/02 10:18:59;;;;;;;4.30;3.07;;;15.60;91.60;;;;;;5014116;28;20793;-74
2023/05/02 10:21:29;;;;;;;5.30;3.57;;;15.60;91.40;;;;;;5013996;28;20499;-74
2023/05/02 10:23:56;;;;;;;3.70;3.30;;;15.60;91.30;;;;;;5014150;28;20452;-75
2023/05/02 10:26:22;;;;;;;5.43;3.57;;;15.60;91.20;;;;;;4997695;28;20414;-74
2023/05/02 10:28:51;;;;;;;7.27;4.23;;;15.60;91.30;;;;;;5013626;28;20451;-74
2023/05/02 10:31:25;;;;;;;5.17;3.90;;;15.70;91.50;;;;;;5013857;28;20411;-74
2023/05/02 10:33:54;;;;;;;5.23;3.80;;;15.70;91.50;;;;;;4997506;28;20475;-74
2023/05/02 10:36:22;;;;;;;5.23;3.63;;;15.70;91.40;;;;;;5013907;28;20432;-74
2023/05/02 10:38:49;;;;;;;5.67;3.40;;;15.70;91.20;;;;;;5031212;28;20398;-74
2023/05/02 10:41:23;;;;;;;4.67;3.53;;;15.70;91.10;;;;;;5032626;28;20948;-74
2023/05/02 10:43:52;;;;;;;8.70;4.00;;;15.70;91.10;;;;;;5051045;28;20449;-74
2023/05/02 10:46:39;;;;;;;6.20;3.60;;;15.70;91.10;;;;;;5051282;28;20401;-74
2023/05/02 10:49:09;;;;;;;6.93;3.43;;;15.80;90.80;;;;;;4998115;28;20987;-74
2023/05/02 10:51:41;;;;;;;4.73;2.60;;;15.80;90.50;;;;;;5033288;28;20464;-74
2023/05/02 10:54:20;;;;;;;6.63;3.13;;;15.80;90.20;;;;;;5008754;28;20548;-74
2023/05/02 10:57:04;;;;;;;8.80;3.20;;;15.70;89.70;;;;;;5033876;28;20454;-74
2023/05/02 10:59:45;;;;;;;5.40;3.40;;;15.70;89.40;;;;;;5049823;28;20430;-76
2023/05/02 11:02:22;;;;;;;4.53;2.87;;;15.70;89.50;;;;;;5033221;28;20465;-75
2023/05/02 11:05:07;;;;;;;5.63;3.47;;;15.70;89.20;;;;;;5047108;28;20946;-75
2023/05/02 11:07:35;;;;;;;6.60;3.47;;;15.70;89.00;;;;;;5014245;28;20449;-75
2023/05/02 11:10:16;;;;;;;5.70;3.30;;;15.70;89.00;;;;;;5020274;28;20463;-75
2023/05/02 11:12:47;;;;;;;5.00;3.10;;;15.80;89.20;;;;;;5018785;28;20488;-74
2023/05/02 11:15:26;;;;;;;4.40;3.63;;;15.80;89.30;;;;;;5020025;28;20473;-74
2023/05/02 11:18:06;;;;;;;7.13;3.77;;;15.80;89.30;;;;;;5037015;28;20399;-74
2023/05/02 11:20:38;;;;;;;8.33;3.57;;;15.80;89.30;;;;;;5036084;28;20441;-75
2023/05/02 11:23:20;;;;;;;10.07;3.57;;;15.80;89.10;;;;;;5021496;28;20464;-72
2023/05/02 11:25:50;;;;;;;6.80;3.40;;;15.80;88.90;;;;;;5048036;28;20504;-80
2023/05/02 11:28:39;;;;;;;5.20;3.47;;;15.80;89.00;;;;;;5029829;28;20510;-79
2023/05/02 11:31:29;;;;;;;4.13;3.70;;;15.80;89.20;;;;;;5042632;28;20412;-80
2023/05/02 11:34:02;;;;;;;7.27;3.43;;;15.80;89.00;;;;;;5047142;28;20471;-78
2023/05/02 11:36:34;;;;;;;5.50;3.50;;;15.90;89.30;;;;;;5020505;28;20439;-73
2023/05/02 11:39:17;;;;;;;7.67;3.63;;;15.90;89.00;;;;;;5019423;28;20437;-73
2023/05/02 11:41:43;;;;;;;7.67;3.00;;;15.90;88.80;;;;;;5054220;28;20431;-73
2023/05/02 11:44:09;;;;;;;8.27;3.33;;;15.90;88.80;;;;;;5001700;28;20433;-73
2023/05/02 11:46:44;;;;;;;6.17;3.40;;;16.00;88.60;;;;;;5016880;28;20899;-73
2023/05/02 11:49:12;;;;;;;4.40;3.30;;;16.00;87.90;;;;;;5016833;28;20421;-72
2023/05/02 11:51:38;;;;;;;6.97;3.47;;;16.00;87.30;;;;;;5016393;28;20463;-73
2023/05/02 11:54:06;;;;;;;5.63;3.10;;;16.00;87.60;;;;;;5034213;28;20497;-72
2023/05/02 11:56:32;;;;;;;4.10;2.83;;;16.00;87.90;;;;;;5016836;28;20510;-73
2023/05/02 11:59:02;;;;;;;7.07;3.30;;;16.10;87.70;;;;;;5016521;28;20428;-73
2023/05/02 12:01:31;;;;;;;6.40;3.43;;;16.10;87.70;;;;;;4984083;28;20443;-73
2023/05/02 12:04:05;;;;;;;4.33;3.33;;;16.10;87.70;;;;;;5034047;28;20423;-73
2023/05/02 12:06:32;;;;;;;10.87;3.43;;;16.10;88.10;;;;;;5016271;28;20794;-72
2023/05/02 12:09:15;;;;;;;5.43;3.47;;;16.20;88.30;;;;;;5033959;28;20453;-73
2023/05/02 12:11:43;;;;;;;4.80;2.80;;;16.20;87.80;;;;;;5037428;28;20475;-73
2023/05/02 12:14:10;;;;;;;4.67;2.73;;;16.20;87.70;;;;;;5036124;28;20498;-72
2023/05/02 12:16:38;;;;;;;4.83;3.10;;;16.20;87.00;;;;;;5003353;28;20420;-73
2023/05/02 12:19:06;;;;;;;5.10;2.93;;;16.30;86.70;;;;;;5035402;28;20428;-73
2023/05/02 12:21:33;;;;;;;4.50;3.50;;;16.30;87.20;;;;;;5035625;28;20498;-73
2023/05/02 12:24:02;;;;;;;5.67;2.93;;;16.30;87.40;;;;;;5053843;28;20897;-73
2023/05/02 12:26:33;;;;;;;4.00;3.20;;;16.30;87.50;;;;;;5052613;28;20623;-73
2023/05/02 12:29:01;;;;;;;3.63;2.80;;;16.40;87.20;;;;;;5035786;28;20470;-73
2023/05/02 12:31:29;;;;;;;4.40;3.00;;;16.40;86.20;;;;;;5053365;28;20401;-73
2023/05/02 12:34:00;;;;;;;4.70;2.97;;;16.40;86.50;;;;;;5052983;28;20644;-73
2023/05/02 12:36:34;;;;;;;2.70;2.50;;;16.40;86.60;;;;;;5053336;28;20409;-73
2023/05/02 12:39:03;;;;;;;3.97;3.00;;;16.40;86.20;;;;;;5019479;28;20796;-73
2023/05/02 12:41:42;;;;;;;6.53;3.37;;;16.50;86.40;;;;;;5035487;28;20416;-73
2023/05/02 12:44:08;;;;;;;4.23;2.83;;;16.50;85.90;;;;;;5035674;28;20436;-73
2023/05/02 12:46:58;;;;;;;5.37;3.33;;;16.50;86.00;;;;;;5035348;28;20449;-73
2023/05/02 12:49:24;;;;;;;4.30;3.07;;;16.50;86.30;;;;;;5002864;28;20792;-73
2023/05/02 12:51:57;;;;;;;4.40;2.90;;;16.50;86.20;;;;;;5018700;28;20427;-73
2023/05/02 12:54:27;;;;;;;4.90;3.03;;;16.60;85.90;;;;;;5035367;28;20835;-73
2023/05/02 12:56:58;;;;;;;6.30;3.07;;;16.60;85.50;;;;;;5019081;28;20510;-73
2023/05/02 12:59:28;;;;;;;4.57;3.07;;;16.60;86.00;;;;;;5053221;28;20459;-73